Latest Coastal Weather Observations for Low Head

IDT60701

Issued at 11:45 am EDT Thursday 23 October 2014 (issued every 10 minutes, with the page automatically refreshed every 10 minutes)

About coastal observations | Map of coastal stations | Coastal observations for TAS | Marine services | Other Formats
Station Details ID: 091293 Name: LOW HEAD Lat: -41.05 Lon: 146.79 Height: 3.0 m
Data from the previous 72 hours. | See also: Recent months at Low Head
Date/Time
EDT
Temp

°C
Wind Pressure Rain
since 9am
mm
Weather Cloud Vis
km
Sea
Height
m
Swell
Dir
 
Speed
knots
Gust
knots
hPa Trend Height
m
Period
s
Dir
23/11:30am 17.2 SSE 15 20 1022.6 - 0.0 - - - - - - -
23/11:00am 16.6 SSE 15 22 1022.7 - 0.0 - - - - - - -
23/10:30am 15.8 SSE 17 23 1022.7 - 0.0 - - - - - - -
23/10:00am 14.6 SSE 21 28 1022.3 - 0.0 - - - - - - -
23/09:30am 14.0 SSE 20 29 1022.0 - 0.0 - - - - - - -
23/09:14am 14.0 SSE 19 29 1022.1 - 0.0 - - - - - - -
23/09:00am 13.8 SSE 20 28 1021.9 F 0.0 Fine Partly cloudy 25 1 0.5 3 NE
23/08:31am 13.7 SSE 18 28 1021.7 - 0.0 - - - - - - -
23/08:30am 13.7 SSE 19 28 1021.6 - 0.0 - - - - - - -
23/08:02am 13.4 SSE 19 29 1021.2 - 0.0 - - - - - - -
23/08:00am 13.3 SSE 20 29 1021.2 - 0.0 - - - - - - -
23/07:36am 13.2 SSE 21 31 1020.6 - 0.0 - - - - - - -
23/07:30am 13.2 SSE 21 28 1020.4 - 0.0 - - - - - - -
23/07:00am 13.3 SSE 20 28 1019.5 - 0.0 - - - - - - -
23/06:42am 13.5 SSE 21 31 1019.2 - 0.0 - - - - - - -
23/06:30am 13.6 SSE 22 30 1019.0 - 0.0 - - - - - - -
23/06:00am 13.8 SSE 18 27 1018.6 S 0.0 Fine Partly cloudy 25 <0.5 0.5 3 NE
23/05:30am 13.7 SE 11 19 1018.6 - 0.0 - - - - - - -
23/05:00am 13.2 SSE 9 12 1018.4 - 0.0 - - - - - - -
23/04:30am 13.1 SE 8 9 1018.3 - 0.0 - - - - - - -
23/04:00am 13.6 ESE 8 11 1017.9 - 0.0 - - - - - - -
23/03:30am 13.8 ESE 8 12 1017.6 - 0.0 - - - - - - -
23/03:00am 14.0 SSE 12 17 1017.0 - 0.0 - - - - - - -
23/02:30am 13.8 SSE 16 21 1016.7 - 0.0 - - - - - - -
23/02:00am 13.4 SSE 14 21 1016.4 - 0.0 - - - - - - -
23/01:30am 12.0 SSE 6 8 1016.8 - 0.0 - - - - - - -
23/01:00am 12.6 S 9 13 1017.3 - 0.0 - - - - - - -
23/12:30am 12.1 S 6 7 1017.0 - 0.0 - - - - - - -
23/12:00am 12.8 SSE 4 5 1016.7 - 0.0 - - - - - - -
 
Date/Time
EDT
Temp

°C
Wind Pressure Rain
since 9am
mm
Weather Cloud Vis
km
Sea
Height
m
Swell
Dir
 
Speed
knots
Gust
knots
hPa Trend Height
m
Period
s
Dir
22/11:30pm 13.1 CALM 0 0 1016.5 - 0.0 - - - - - - -
22/11:00pm 13.4 CALM 0 0 1016.4 - 0.0 - - - - - - -
22/10:30pm 14.1 NNW 2 5 1015.8 - 0.0 - - - - - - -
22/10:00pm 14.2 NNW 5 6 1016.3 - 0.0 - - - - - - -
22/09:30pm 14.4 W 4 7 1016.6 - 0.0 - - - - - - -
22/09:00pm 14.2 CALM 0 1 1016.2 - 0.0 - - - - - - -
22/08:30pm 14.5 SW 7 9 1016.4 - 0.0 - - - - - - -
22/08:00pm 14.7 NNE 5 7 1015.3 - 0.0 - - - - - - -
22/07:30pm 14.8 N 11 14 1015.5 - 0.0 - - - - - - -
22/07:00pm 15.0 NE 10 12 1014.5 - 0.0 - - - - - - -
22/06:30pm 15.2 N 7 14 1015.9 - 0.0 - - - - - - -
22/06:00pm 15.3 N 5 7 1016.0 - 0.0 - - - - - - -
22/05:30pm 15.5 NNE 7 8 1016.0 - 0.0 - - - - - - -
22/05:00pm 15.8 N 9 13 1016.5 - 0.0 - - - - - - -
22/04:30pm 16.1 NNE 6 7 1016.5 - 0.0 - - - - - - -
22/04:00pm 16.0 NNE 6 7 1016.6 - 0.0 - - - - - - -
22/03:30pm 16.5 NNE 8 9 1016.5 - 0.0 - - - - - - -
22/03:00pm 16.3 NNE 9 11 1016.5 F 0.0 Fine Mostly cloudy 20 <0.5 0.5 3 -
22/02:30pm 16.5 NNE 10 12 1016.9 - 0.0 - - - - - - -
22/02:00pm 16.3 NNE 10 12 1017.5 - 0.0 - - - - - - -
22/01:30pm 15.8 NNE 9 10 1018.0 - 0.0 - - - - - - -
22/01:00pm 16.3 NNE 10 11 1018.3 - 0.0 - - - - - - -
22/12:30pm 16.1 NNE 11 12 1018.9 - 0.0 - - - - - - -
22/12:00pm 16.2 NE 11 12 1019.6 - 0.0 - - - - - - -
22/11:30am 16.1 NE 11 13 1020.2 - 0.0 - - - - - - -
22/11:00am 16.3 NE 8 9 1020.8 - 0.0 - - - - - - -
22/10:30am 15.5 NNE 5 6 1021.3 - 0.0 - - - - - - -
22/10:00am 16.2 S 1 4 1021.8 - 0.0 - - - - - - -
22/09:30am 16.6 E 5 8 1021.8 - 0.0 - - - - - - -
22/09:00am 14.7 E 8 11 1021.7 F 0.0 Fine Cloudy 20 <0.5 0.5 3 -
22/08:30am 14.6 E 6 8 1022.3 - 0.0 - - - - - - -
22/08:00am 14.3 ESE 7 9 1022.5 - 0.0 - - - - - - -
22/07:30am 13.5 ESE 5 8 1022.4 - 0.0 - - - - - - -
22/07:00am 13.1 SE 7 10 1022.6 - 0.0 - - - - - - -
22/06:30am 12.8 ESE 6 8 1022.8 - 0.0 - - - - - - -
22/06:00am 12.6 SE 6 7 1023.0 F 0.0 Fine Cloudy 20 <0.5 0.5 3 -
22/05:30am 12.7 SE 6 8 1023.2 - 0.0 - - - - - - -
22/05:00am 12.6 SE 6 8 1023.5 - 0.0 - - - - - - -
22/04:30am 12.5 SE 7 9 1023.9 - 0.0 - - - - - - -
22/04:00am 12.6 ESE 7 10 1024.1 - 0.0 - - - - - - -
22/03:30am 12.6 ESE 8 11 1024.5 - 0.0 - - - - - - -
22/03:00am 12.5 SE 7 9 1025.3 - 0.0 - - - - - - -
22/02:30am 12.5 ESE 6 8 1025.7 - 0.0 - - - - - - -
22/02:00am 12.4 ESE 6 9 1026.1 - 0.0 - - - - - - -
22/01:30am 12.4 ESE 7 11 1026.7 - 0.0 - - - - - - -
22/01:00am 12.2 ESE 7 9 1027.4 - 0.0 - - - - - - -
22/12:30am 12.0 ESE 7 11 1027.6 - 0.0 - - - - - - -
22/12:00am 11.6 SE 6 8 1028.0 - 0.0 - - - - - - -
 
Date/Time
EDT
Temp

°C
Wind Pressure Rain
since 9am
mm
Weather Cloud Vis
km
Sea
Height
m
Swell
Dir
 
Speed
knots
Gust
knots
hPa Trend Height
m
Period
s
Dir
21/11:30pm 11.0 ESE 7 9 1028.2 - 0.0 - - - - - - -
21/11:00pm 11.0 SE 8 10 1028.5 - 0.0 - - - - - - -
21/10:30pm 10.7 SE 6 7 1029.0 - 0.0 - - - - - - -
21/10:00pm 11.0 ESE 6 9 1029.3 - 0.0 - - - - - - -
21/09:30pm 11.6 ESE 7 9 1029.2 - 0.0 - - - - - - -
21/09:00pm 12.7 E 10 13 1029.2 - 0.0 - - - - - - -
21/08:30pm 13.4 E 13 16 1029.1 - 0.0 - - - - - - -
21/08:00pm 14.0 ENE 18 22 1028.8 - 0.0 - - - - - - -
21/07:30pm 14.2 ENE 19 23 1028.5 - 0.0 - - - - - - -
21/07:00pm 14.4 ENE 19 22 1028.5 - 0.0 - - - - - - -
21/06:30pm 14.5 NE 17 20 1028.8 - 0.0 - - - - - - -
21/06:00pm 14.8 NE 17 19 1029.3 - 0.0 - - - - - - -
21/05:30pm 15.1 NE 18 21 1029.3 - 0.0 - - - - - - -
21/05:00pm 15.3 NE 16 18 1029.4 - 0.0 - - - - - - -
21/04:30pm 15.5 NE 17 19 1029.6 - 0.0 - - - - - - -
21/04:00pm 15.6 NE 18 20 1029.9 - 0.0 - - - - - - -
21/03:30pm 15.9 ENE 17 19 1030.2 - 0.0 - - - - - - -
21/03:00pm 15.9 ENE 17 19 1030.8 F 0.0 Fine Mostly clear 25 <0.5 0.5 3 NE
21/02:30pm 15.7 ENE 17 21 1031.1 - 0.0 - - - - - - -
21/02:00pm 15.8 NE 16 19 1031.7 - 0.0 - - - - - - -
21/01:30pm 15.7 ENE 17 21 1032.0 - 0.0 - - - - - - -
21/01:00pm 15.4 ENE 16 21 1032.3 - 0.0 - - - - - - -
21/12:30pm 15.1 ENE 14 17 1032.7 - 0.0 - - - - - - -
21/12:00pm 15.2 ENE 16 22 1033.1 - 0.0 - - - - - - -
21/11:30am 14.7 ENE 15 21 1033.1 - 0.0 - - - - - - -
21/11:00am 14.3 ENE 16 19 1033.6 - 0.0 - - - - - - -
21/10:30am 14.2 ENE 15 19 1033.8 - 0.0 - - - - - - -
21/10:00am 14.0 E 14 20 1033.8 - 0.0 - - - - - - -
21/09:30am 12.9 E 11 15 1034.0 - 0.0 - - - - - - -
21/09:00am 11.5 SSE 9 11 1034.1 R 0.0 Fine Cloudy 20 <0.1 0.3 3 -
21/08:30am 11.0 SSE 8 10 1034.1 - 0.0 - - - - - - -
21/08:00am 10.5 SSE 8 11 1033.9 - 0.0 - - - - - - -
21/07:30am 9.9 SSE 9 12 1033.5 - 0.0 - - - - - - -
21/07:00am 9.5 SSE 9 11 1033.2 - 0.0 - - - - - - -
21/06:30am 9.8 SE 7 9 1032.8 - 0.0 - - - - - - -
21/06:00am 9.3 SSE 6 8 1032.6 F 0.0 Fine Cloudy 20 <0.1 0.3 5 -
21/05:30am 9.1 SSE 8 11 1032.6 - 0.0 - - - - - - -
21/05:00am 9.6 S 10 13 1032.7 - 0.0 - - - - - - -
21/04:30am 9.9 SE 7 10 1032.8 - 0.0 - - - - - - -
21/04:00am 9.5 ESE 9 13 1032.6 - 0.0 - - - - - - -
21/03:30am 9.1 E 11 14 1033.1 - 0.0 - - - - - - -
21/03:00am 8.9 ESE 9 13 1033.5 - 0.0 - - - - - - -
21/02:30am 8.5 E 9 12 1033.4 - 0.0 - - - - - - -
21/02:00am 8.3 E 11 13 1033.6 - 0.0 - - - - - - -
21/01:30am 9.0 E 8 13 1034.0 - 0.0 - - - - - - -
21/01:00am 8.8 E 10 13 1034.1 - 0.0 - - - - - - -
21/12:30am 9.1 E 8 12 1034.3 - 0.0 - - - - - - -
21/12:00am 9.2 E 9 12 1034.5 - 0.0 - - - - - - -
 
Date/Time
EDT
Temp

°C
Wind Pressure Rain
since 9am
mm
Weather Cloud Vis
km
Sea
Height
m
Swell
Dir
 
Speed
knots
Gust
knots
hPa Trend Height
m
Period
s
Dir
20/11:30pm 8.9 E 9 11 1034.7 - 0.0 - - - - - - -
20/11:00pm 9.1 E 10 13 1034.7 - 0.0 - - - - - - -
20/10:30pm 9.9 E 9 11 1034.8 - 0.0 - - - - - - -
20/10:00pm 9.8 E 9 11 1034.8 - 0.0 - - - - - - -
20/09:30pm 10.4 E 9 11 1034.7 - 0.0 - - - - - - -
20/09:00pm 10.6 E 8 9 1034.5 - 0.0 - - - - - - -
20/08:30pm 11.8 E 9 11 1034.1 - 0.0 - - - - - - -
20/08:00pm 12.6 NE 11 13 1033.8 - 0.0 - - - - - - -
20/07:30pm 12.5 NE 8 10 1033.6 - 0.0 - - - - - - -
20/07:00pm 12.8 NNE 9 11 1033.3 - 0.0 - - - - - - -
20/06:30pm 13.0 NNE 6 8 1033.1 - 0.0 - - - - - - -
20/06:00pm 13.2 NNE 7 9 1033.2 - 0.0 - - - - - - -
20/05:30pm 12.8 N 8 9 1033.3 - 0.0 - - - - - - -
20/05:00pm 13.2 NNE 8 10 1033.2 - 0.0 - - - - - - -
20/04:30pm 13.1 NNE 10 13 1033.2 - 0.0 - - - - - - -
20/04:00pm 13.2 NNE 11 13 1033.1 - 0.0 - - - - - - -
20/03:30pm 12.9 NNE 11 13 1033.3 - 0.0 - - - - - - -
20/03:00pm 13.1 N 13 16 1033.4 R 0.0 Fine Mostly clear 25 1 0.5 3 -
20/02:30pm 12.7 N 13 14 1033.6 - 0.0 - - - - - - -
20/02:00pm 13.3 N 12 13 1033.7 - 0.0 - - - - - - -
20/01:30pm 14.3 N 10 11 1034.1 - 0.0 - - - - - - -
20/01:00pm 12.9 N 10 12 1034.2 - 0.0 - - - - - - -
20/12:30pm 12.9 N 9 13 1034.2 - 0.0 - - - - - - -
20/12:00pm 12.9 S 11 15 1034.2 - 0.0 - - - - - - -

Other Formats:

Comma delimited format used in spreadsheet applications
http://www.bom.gov.au/fwo/IDT60701/IDT60701.95964.axf

JavaScript Object Notation format (JSON) in row-major order
http://www.bom.gov.au/fwo/IDT60701/IDT60701.95964.json